Time;durP1;ratioP1;P1;durP2;ratioP2;P2;SDS_P1;SDS_P2;PMS_P1;PMS_P2;Temp;Humidity;BMP_temperature;BMP_pressure;BME280_temperature;BME280_humidity;BME280_pressure;Samples;Min_cycle;Max_cycle;Signal;HPM_P1;HPM_P2
2022/01/02 00:01:26;;;;;;;7.07;1.80;;;;;;;-5.03;84.80;98770.13;5000668;28;20045;-67
2022/01/02 00:04:16;;;;;;;7.72;2.10;;;;;;;-5.00;84.45;98766.50;4986466;28;20080;-69
2022/01/02 00:07:01;;;;;;;6.88;1.92;;;;;;;-5.13;83.97;98769.72;4985930;28;20044;-69
2022/01/02 00:09:50;;;;;;;8.05;2.28;;;;;;;-5.28;84.55;98733.59;4986955;28;20061;-70
2022/01/02 00:12:35;;;;;;;10.05;2.72;;;;;;;-5.44;85.00;98706.31;4986861;28;20516;-70
2022/01/02 00:15:23;;;;;;;9.02;2.10;;;;;;;-5.12;85.18;98765.28;4997974;28;20138;-68
2022/01/02 00:18:12;;;;;;;8.65;2.42;;;;;;;-5.34;84.40;98733.88;4998074;28;20139;-67
2022/01/02 00:20:59;;;;;;;8.40;2.20;;;;;;;-5.12;83.64;98791.63;4998373;28;20063;-66
2022/01/02 00:24:06;;;;;;;7.43;1.92;;;;;;;-5.05;83.76;98802.72;4997974;28;20096;-67
2022/01/02 00:26:51;;;;;;;5.72;1.45;;;;;;;-5.31;84.01;98759.22;5000484;28;20152;-67
2022/01/02 00:29:40;;;;;;;7.97;2.10;;;;;;;-5.50;83.42;98743.47;4970270;28;20534;-68
2022/01/02 00:32:26;;;;;;;8.35;2.00;;;;;;;-5.25;84.14;98786.13;4983579;28;20044;-67
2022/01/02 00:35:11;;;;;;;8.48;2.20;;;;;;;-5.13;83.19;98790.78;4969629;28;20551;-67
2022/01/02 00:37:55;;;;;;;7.97;2.05;;;;;;;-5.22;83.58;98791.25;5012242;28;20041;-65
2022/01/02 00:40:43;;;;;;;4.55;1.27;;;;;;;-5.40;82.12;98750.84;5012243;28;20076;-65
2022/01/02 00:43:38;;;;;;;7.82;2.13;;;;;;;-5.25;82.50;98801.06;4983294;28;20081;-66
2022/01/02 00:46:22;;;;;;;7.63;1.83;;;;;;;-5.15;82.10;98813.72;5011894;28;20092;-68
2022/01/02 00:49:08;;;;;;;6.72;2.00;;;;;;;-5.21;80.48;98815.81;4996765;28;20057;-65
2022/01/02 00:52:02;;;;;;;6.60;1.63;;;;;;;-5.36;77.94;98820.03;4983349;28;20095;-67
2022/01/02 00:54:49;;;;;;;5.05;1.58;;;;;;;-5.45;75.47;98809.91;4997077;28;20386;-66
2022/01/02 00:57:36;;;;;;;6.95;1.80;;;;;;;-5.60;75.68;98800.94;4996627;28;20109;-67
2022/01/02 01:00:22;;;;;;;7.85;1.90;;;;;;;-5.57;76.09;98822.72;4996393;28;20084;-67
2022/01/02 01:03:08;;;;;;;5.75;1.35;;;;;;;-5.91;76.44;98769.94;4996798;28;20052;-65
2022/01/02 01:05:55;;;;;;;6.38;1.77;;;;;;;-5.68;76.73;98793.41;4983219;28;20061;-67
2022/01/02 01:08:40;;;;;;;6.07;1.60;;;;;;;-5.49;77.11;98819.72;4996351;28;20493;-66
2022/01/02 01:11:26;;;;;;;6.15;1.55;;;;;;;-5.64;76.62;98794.13;4969915;28;20044;-66
2022/01/02 01:14:10;;;;;;;7.50;1.90;;;;;;;-5.37;78.55;98836.75;4997709;28;20064;-67
2022/01/02 01:16:55;;;;;;;6.65;1.95;;;;;;;-5.38;80.33;98827.13;4996966;28;20099;-65
2022/01/02 01:19:40;;;;;;;6.53;1.80;;;;;;;-5.63;83.96;98807.22;4997929;28;20154;-67
2022/01/02 01:22:24;;;;;;;6.85;1.80;;;;;;;-5.64;87.67;98831.81;4997535;28;20037;-65
2022/01/02 01:25:16;;;;;;;7.65;2.45;;;;;;;-5.60;89.31;98832.53;4996981;28;20104;-66
2022/01/02 01:28:00;;;;;;;9.13;2.70;;;;;;;-5.90;88.98;98790.06;4997252;28;20088;-67
2022/01/02 01:30:45;;;;;;;10.27;2.03;;;;;;;-6.04;89.05;98768.81;4996484;28;20052;-66
2022/01/02 01:33:30;;;;;;;11.75;3.17;;;;;;;-5.84;86.44;98827.50;4995950;28;20369;-66
2022/01/02 01:36:16;;;;;;;7.15;2.22;;;;;;;-6.04;86.26;98810.91;4996117;28;20067;-67
2022/01/02 01:39:01;;;;;;;7.70;2.75;;;;;;;-6.15;85.16;98809.59;4969106;28;20137;-66
2022/01/02 01:41:47;;;;;;;35.13;3.88;;;;;;;-5.89;85.41;98839.97;4982494;28;20048;-67
2022/01/02 01:47:31;;;;;;;8.43;2.53;;;;;;;-6.15;83.86;98808.75;4997976;28;20068;-67
2022/01/02 01:50:17;;;;;;;5.68;1.65;;;;;;;-5.88;84.78;98846.13;4982480;28;20052;-66
2022/01/02 01:53:03;;;;;;;8.07;1.90;;;;;;;-5.87;84.11;98848.66;5009867;28;20120;-65
2022/01/02 01:55:48;;;;;;;7.93;1.95;;;;;;;-5.91;82.78;98851.53;5011293;28;20052;-66
2022/01/02 01:58:33;;;;;;;8.07;2.20;;;;;;;-6.03;81.77;98833.66;4996806;28;20052;-66
2022/01/02 02:01:17;;;;;;;6.72;2.35;;;;;;;-6.07;80.64;98840.81;5010299;28;20045;-66
2022/01/02 02:04:09;;;;;;;7.68;2.53;;;;;;;-6.28;80.84;98818.97;4983077;28;20095;-71
2022/01/02 02:06:55;;;;;;;7.28;2.50;;;;;;;-6.32;80.90;98809.53;4982254;28;20045;-65
2022/01/02 02:10:01;;;;;;;8.13;2.65;;;;;;;-6.03;80.77;98855.59;4982257;28;20493;-67
2022/01/02 02:12:53;;;;;;;7.90;2.40;;;;;;;-6.07;81.97;98853.97;4996172;28;20413;-66
2022/01/02 02:15:38;;;;;;;6.50;2.13;;;;;;;-6.04;82.67;98859.13;5010094;28;20592;-66
2022/01/02 02:18:22;;;;;;;7.40;2.05;;;;;;;-6.03;81.24;98852.06;4981926;28;20077;-65
2022/01/02 02:21:07;;;;;;;6.95;2.50;;;;;;;-6.38;81.53;98804.50;4998339;28;20136;-65
2022/01/02 02:23:52;;;;;;;7.93;2.50;;;;;;;-6.24;81.27;98840.75;4972479;28;20068;-66
2022/01/02 02:26:39;;;;;;;7.35;2.42;;;;;;;-6.05;81.59;98874.97;5013430;28;20073;-65
2022/01/02 02:29:24;;;;;;;9.10;2.20;;;;;;;-6.07;82.55;98870.66;4986277;28;20060;-65
2022/01/02 02:32:08;;;;;;;7.38;2.28;;;;;;;-6.26;83.30;98838.16;4985755;28;20144;-65
2022/01/02 02:34:55;;;;;;;7.40;2.25;;;;;;;-6.10;84.04;98870.78;4999716;28;20136;-66
2022/01/02 02:37:43;;;;;;;8.50;2.58;;;;;;;-6.07;84.00;98886.44;4985803;28;20068;-66
2022/01/02 02:40:30;;;;;;;7.25;2.10;;;;;;;-6.06;84.18;98887.28;4999204;28;20049;-66
2022/01/02 02:49:20;;;;;;;8.88;2.60;;;;;;;-6.35;83.78;98849.94;4999794;28;20510;-67
2022/01/02 02:52:12;;;;;;;6.82;2.22;;;;;;;-6.16;84.09;98885.97;5014535;28;20077;-68
2022/01/02 02:54:56;;;;;;;8.02;2.75;;;;;;;-6.27;85.11;98882.94;5000673;28;20071;-66
2022/01/02 02:57:42;;;;;;;7.47;2.67;;;;;;;-6.13;85.67;98922.66;4986201;28;20092;-64
2022/01/02 03:00:26;;;;;;;8.13;2.58;;;;;;;-6.22;85.63;98896.75;5013378;28;20049;-64
2022/01/02 03:03:11;;;;;;;9.48;2.40;;;;;;;-6.14;85.99;98915.69;4999974;28;20559;-70
2022/01/02 03:05:56;;;;;;;7.07;2.50;;;;;;;-6.18;85.79;98914.97;4999370;28;20442;-65
2022/01/02 03:08:42;;;;;;;5.90;1.67;;;;;;;-6.16;84.50;98938.56;5013119;28;20104;-66
2022/01/02 03:11:29;;;;;;;7.88;2.25;;;;;;;-6.18;84.50;98930.75;5013653;28;20196;-65
2022/01/02 03:14:14;;;;;;;8.55;2.60;;;;;;;-6.15;84.96;98935.00;5013007;28;20088;-66
2022/01/02 03:17:02;;;;;;;7.50;2.00;;;;;;;-6.27;83.74;98922.38;4985434;28;20131;-65
2022/01/02 03:19:47;;;;;;;8.77;3.03;;;;;;;-6.43;84.10;98898.53;4998482;28;20095;-66
2022/01/02 03:22:34;;;;;;;8.25;2.50;;;;;;;-6.28;84.34;98934.69;4972388;28;20528;-67
2022/01/02 03:25:19;;;;;;;8.30;2.40;;;;;;;-6.29;83.99;98942.63;4971787;28;20133;-66
2022/01/02 03:28:03;;;;;;;8.80;2.55;;;;;;;-6.20;84.46;98953.63;4985162;28;20090;-65
2022/01/02 03:30:47;;;;;;;12.38;3.13;;;;;;;-6.28;84.34;98961.00;4984971;28;20465;-64
2022/01/02 03:33:32;;;;;;;6.78;1.85;;;;;;;-6.27;85.05;98967.94;4984222;28;20100;-65
2022/01/02 03:36:18;;;;;;;5.57;1.88;;;;;;;-6.50;84.79;98933.88;5012164;28;20091;-67
2022/01/02 03:39:03;;;;;;;9.02;2.38;;;;;;;-6.44;85.48;98944.09;4984902;28;20045;-65
2022/01/02 03:41:47;;;;;;;11.98;2.58;;;;;;;-6.44;86.03;98944.09;5014034;28;20076;-66
2022/01/02 03:44:32;;;;;;;8.10;2.72;;;;;;;-6.40;87.12;98924.66;5017548;28;20196;-66
2022/01/02 03:47:19;;;;;;;6.50;1.85;;;;;;;-6.69;85.86;98924.09;5017462;28;20133;-66
2022/01/02 03:50:05;;;;;;;17.92;2.78;;;;;;;-6.36;86.98;98979.72;5016927;28;20088;-66
2022/01/02 03:52:49;;;;;;;7.57;2.40;;;;;;;-6.44;86.01;98991.44;4999956;28;20133;-65
2022/01/02 03:55:35;;;;;;;8.63;2.58;;;;;;;-6.59;85.35;98959.59;4971320;28;20060;-67
2022/01/02 03:58:19;;;;;;;9.52;2.20;;;;;;;-6.42;86.17;98984.34;4997810;28;20045;-68
2022/01/02 04:01:04;;;;;;;6.85;2.53;;;;;;;-6.41;86.40;98996.56;4970603;28;20064;-67
2022/01/02 04:03:48;;;;;;;7.60;2.13;;;;;;;-6.49;86.18;98998.66;5011851;28;20049;-67
2022/01/02 04:06:33;;;;;;;7.90;2.15;;;;;;;-6.55;87.72;99005.84;5011855;28;20528;-64
2022/01/02 04:09:18;;;;;;;8.05;2.40;;;;;;;-6.46;88.84;98999.41;5011875;28;20165;-65
2022/01/02 04:12:02;;;;;;;7.15;2.10;;;;;;;-6.56;87.25;98991.00;5011386;28;20061;-66
2022/01/02 04:14:49;;;;;;;7.95;2.38;;;;;;;-6.73;87.72;98989.97;4984545;28;20120;-72
2022/01/02 04:17:34;;;;;;;6.97;1.95;;;;;;;-6.68;87.18;99006.44;4997650;28;20052;-64
2022/01/02 04:20:18;;;;;;;6.85;1.95;;;;;;;-6.82;87.47;98975.41;5011564;28;20044;-66
2022/01/02 04:23:03;;;;;;;8.25;2.30;;;;;;;-6.63;88.02;99005.31;5011509;28;20045;-66
2022/01/02 04:25:48;;;;;;;5.10;1.88;;;;;;;-6.66;87.08;99013.31;4999062;28;20106;-64
2022/01/02 04:28:33;;;;;;;7.10;2.10;;;;;;;-6.67;86.99;99021.28;4984159;28;20115;-64
2022/01/02 04:31:17;;;;;;;5.75;1.13;;;;;;;-6.90;87.09;98972.25;4997796;28;20099;-67
2022/01/02 04:34:02;;;;;;;8.18;2.60;;;;;;;-6.87;86.61;98993.16;4997741;28;20149;-66
2022/01/02 04:36:46;;;;;;;6.80;2.10;;;;;;;-6.99;86.55;98988.34;4997305;28;20044;-65
2022/01/02 04:39:32;;;;;;;7.07;1.92;;;;;;;-6.72;86.03;99034.59;4997040;28;20056;-67
2022/01/02 04:42:19;;;;;;;8.55;2.25;;;;;;;-6.74;85.43;99031.16;4997672;28;20107;-68
2022/01/02 04:45:05;;;;;;;6.75;1.92;;;;;;;-6.98;85.02;98990.03;4983017;28;20083;-67
2022/01/02 04:47:50;;;;;;;9.27;2.28;;;;;;;-6.82;85.02;99027.97;5010933;28;20060;-65
2022/01/02 04:50:34;;;;;;;5.97;1.52;;;;;;;-6.78;84.45;99044.47;4983874;28;20057;-66
2022/01/02 04:53:22;;;;;;;10.25;2.72;;;;;;;-6.86;85.76;99047.41;5012745;28;20052;-66
2022/01/02 04:56:07;;;;;;;6.07;1.90;;;;;;;-7.20;85.07;98985.63;4985898;28;20119;-66
2022/01/02 04:58:51;;;;;;;6.97;1.85;;;;;;;-7.11;83.60;99006.28;5013500;28;20123;-66
2022/01/02 05:01:36;;;;;;;7.13;1.65;;;;;;;-7.34;83.33;98982.66;5014116;28;20555;-67
2022/01/02 05:04:21;;;;;;;5.72;1.73;;;;;;;-7.24;82.30;98997.13;4970739;28;20057;-67
2022/01/02 05:07:07;;;;;;;7.65;1.85;;;;;;;-7.30;83.04;99042.88;4982972;28;20076;-67
2022/01/02 05:09:52;;;;;;;8.02;1.83;;;;;;;-7.43;83.41;99035.47;4996822;28;20060;-66
2022/01/02 05:12:37;;;;;;;8.98;2.40;;;;;;;-7.47;84.38;99039.13;4996795;28;20084;-68
2022/01/02 05:15:22;;;;;;;7.65;1.90;;;;;;;-7.89;85.37;99000.38;4982860;28;20110;-67
2022/01/02 05:18:07;;;;;;;7.90;2.47;;;;;;;-7.80;83.62;99028.88;4996805;28;20061;-69
2022/01/02 05:20:52;;;;;;;5.68;1.63;;;;;;;-7.59;82.34;99051.75;4982990;28;20065;-66
2022/01/02 05:23:37;;;;;;;7.63;2.10;;;;;;;-7.67;82.52;99060.81;4983661;28;20057;-67
2022/01/02 05:26:22;;;;;;;6.55;1.90;;;;;;;-7.61;81.17;99057.97;5010923;28;20540;-67
2022/01/02 05:29:06;;;;;;;6.00;1.65;;;;;;;-7.69;81.79;99045.13;5010736;28;20099;-65
2022/01/02 05:31:51;;;;;;;7.22;2.20;;;;;;;-7.68;83.44;99062.56;4996733;28;20100;-66
2022/01/02 05:34:35;;;;;;;7.72;2.45;;;;;;;-7.62;84.16;99065.00;4996441;28;20096;-65
2022/01/02 05:37:21;;;;;;;8.77;2.50;;;;;;;-7.50;85.54;99073.34;4996234;28;20084;-67
2022/01/02 05:40:06;;;;;;;7.25;2.10;;;;;;;-7.67;86.54;99043.31;4982496;28;20200;-68
2022/01/02 05:42:51;;;;;;;7.93;2.35;;;;;;;-7.47;88.27;99087.22;4968892;28;20192;-68
2022/01/02 05:45:35;;;;;;;7.25;2.20;;;;;;;-7.43;87.99;99087.97;4996264;28;20422;-67
2022/01/02 05:48:20;;;;;;;9.50;2.40;;;;;;;-7.66;86.88;99066.00;4968583;28;20060;-66
2022/01/02 05:51:04;;;;;;;7.30;2.40;;;;;;;-7.31;88.83;99108.56;4982422;28;20479;-68
2022/01/02 05:53:49;;;;;;;7.40;2.47;;;;;;;-7.21;88.17;99104.69;4995964;28;20045;-69
2022/01/02 05:56:34;;;;;;;4.28;1.50;;;;;;;-7.31;89.08;99084.94;4982205;28;20136;-68
2022/01/02 05:59:19;;;;;;;10.43;2.75;;;;;;;-7.66;87.62;99028.41;4981648;28;20057;-69
2022/01/02 06:02:03;;;;;;;7.18;2.30;;;;;;;-7.48;85.69;99079.41;4968557;28;20367;-70
2022/01/02 06:04:47;;;;;;;8.63;2.33;;;;;;;-7.26;85.88;99117.13;4968904;28;20493;-68
2022/01/02 06:07:32;;;;;;;14.35;2.75;;;;;;;-7.32;83.36;99115.56;4981949;28;20056;-67
2022/01/02 06:10:17;;;;;;;4.95;1.85;;;;;;;-7.44;82.51;99083.66;4995704;28;20100;-66
2022/01/02 06:13:02;;;;;;;8.80;1.45;;;;;;;-7.46;81.11;99088.94;4995531;28;20115;-67
2022/01/02 06:15:46;;;;;;;6.88;1.70;;;;;;;-7.43;80.31;99095.84;4995828;28;20185;-67
2022/01/02 06:18:31;;;;;;;6.13;1.77;;;;;;;-7.50;78.81;99078.59;4981985;28;20482;-67
2022/01/02 06:21:15;;;;;;;6.15;1.73;;;;;;;-7.72;78.90;99068.84;4995680;28;20052;-67
2022/01/02 06:24:00;;;;;;;7.20;1.83;;;;;;;-7.35;78.91;99138.44;4967963;28;20104;-67
2022/01/02 06:26:44;;;;;;;7.40;1.83;;;;;;;-7.40;79.22;99129.88;4968323;28;20581;-67
2022/01/02 06:29:28;;;;;;;8.32;1.73;;;;;;;-7.31;80.05;99145.31;4995826;28;20052;-67
2022/01/02 06:32:16;;;;;;;7.32;1.90;;;;;;;-7.48;78.49;99110.91;4982334;28;20059;-68
2022/01/02 06:35:00;;;;;;;6.22;1.83;;;;;;;-7.30;79.76;99147.03;4981755;28;20473;-67
2022/01/02 06:37:45;;;;;;;7.55;1.80;;;;;;;-7.41;80.66;99125.53;4982103;28;20421;-67
2022/01/02 06:40:30;;;;;;;4.85;1.20;;;;;;;-7.27;80.57;99141.69;4968641;28;20405;-67
2022/01/02 06:43:16;;;;;;;6.88;1.80;;;;;;;-7.29;80.99;99138.25;4982227;28;20104;-67
2022/01/02 06:46:00;;;;;;;9.45;2.08;;;;;;;-7.34;81.34;99134.94;4982134;28;20120;-67
2022/01/02 06:48:46;;;;;;;5.78;1.75;;;;;;;-7.21;80.57;99141.44;4995952;28;20390;-67
2022/01/02 06:51:31;;;;;;;6.18;1.40;;;;;;;-7.20;79.30;99140.56;4995773;28;20049;-67
2022/01/02 06:54:15;;;;;;;5.00;1.20;;;;;;;-7.41;78.03;99107.16;4981936;28;20057;-68
2022/01/02 06:57:00;;;;;;;6.60;1.73;;;;;;;-7.38;78.10;99139.41;4982374;28;20052;-67
2022/01/02 06:59:44;;;;;;;6.03;1.75;;;;;;;-7.58;78.11;99126.97;4981823;28;20539;-68
2022/01/02 07:02:28;;;;;;;4.63;1.40;;;;;;;-7.44;79.24;99130.91;4981720;28;20048;-67
2022/01/02 07:05:13;;;;;;;7.05;1.90;;;;;;;-7.70;79.66;99111.63;4980595;28;20080;-68
2022/01/02 07:07:58;;;;;;;5.57;1.50;;;;;;;-7.42;78.49;99150.06;5007958;28;20060;-68
2022/01/02 07:10:44;;;;;;;8.30;2.50;;;;;;;-7.45;79.25;99160.69;5016901;28;20073;-68
2022/01/02 07:13:28;;;;;;;7.03;1.80;;;;;;;-7.70;80.84;99137.88;5009378;28;20048;-67
2022/01/02 07:16:13;;;;;;;5.25;1.27;;;;;;;-7.35;79.99;99191.84;4997810;28;20037;-68
2022/01/02 07:18:58;;;;;;;5.93;1.50;;;;;;;-7.33;79.92;99189.13;5015351;28;20111;-66
2022/01/02 07:21:42;;;;;;;9.57;1.95;;;;;;;-7.48;80.26;99168.66;4987803;28;20063;-67
2022/01/02 07:24:27;;;;;;;6.30;1.65;;;;;;;-7.58;79.66;99161.06;5001232;28;20079;-68
2022/01/02 07:27:11;;;;;;;7.97;1.95;;;;;;;-7.47;79.96;99173.00;5009470;28;20063;-69
2022/01/02 07:29:56;;;;;;;9.48;1.67;;;;;;;-7.39;79.16;99184.09;5022848;28;20057;-66
2022/01/02 07:32:40;;;;;;;6.95;1.42;;;;;;;-7.48;81.16;99180.00;4978800;28;20063;-69
2022/01/02 07:35:24;;;;;;;5.13;1.50;;;;;;;-7.29;82.20;99186.34;4992206;28;20048;-67
2022/01/02 07:38:09;;;;;;;6.78;1.85;;;;;;;-7.50;82.77;99137.19;4988898;28;20083;-70
2022/01/02 07:40:53;;;;;;;6.70;1.77;;;;;;;-7.15;82.52;99199.03;4993574;28;20474;-67
2022/01/02 07:43:38;;;;;;;6.60;1.70;;;;;;;-7.29;82.32;99186.34;4990179;28;20511;-73
2022/01/02 07:46:22;;;;;;;5.82;1.63;;;;;;;-7.03;80.95;99208.25;4982545;28;20053;-65
2022/01/02 07:49:07;;;;;;;6.93;1.75;;;;;;;-7.26;79.72;99153.03;5014727;28;20496;-74
2022/01/02 07:51:51;;;;;;;5.50;1.50;;;;;;;-6.81;79.99;99210.97;4992332;28;20052;-69
2022/01/02 07:54:37;;;;;;;9.50;1.98;;;;;;;-6.75;79.31;99218.66;5002167;28;20077;-69
2022/01/02 07:57:22;;;;;;;6.53;1.80;;;;;;;-6.96;80.56;99198.38;5016202;28;20072;-70
2022/01/02 08:00:07;;;;;;;9.20;2.28;;;;;;;-7.16;80.92;99178.94;4998289;28;20540;-70
2022/01/02 08:02:56;;;;;;;7.47;1.60;;;;;;;-7.01;79.11;99200.34;5016030;28;20078;-70
2022/01/02 08:05:41;;;;;;;8.35;2.28;;;;;;;-6.90;79.12;99209.53;4993663;28;20657;-69
2022/01/02 08:08:25;;;;;;;6.25;1.92;;;;;;;-6.81;79.21;99224.13;4990072;28;20076;-70
2022/01/02 08:11:09;;;;;;;5.32;1.33;;;;;;;-6.98;78.83;99189.69;5007848;28;20100;-68
2022/01/02 08:13:54;;;;;;;6.72;1.98;;;;;;;-6.91;78.50;99196.44;4975059;28;20491;-68
2022/01/02 08:16:41;;;;;;;8.57;2.10;;;;;;;-6.81;77.77;99224.13;4982053;28;20496;-69
2022/01/02 08:19:26;;;;;;;8.68;1.88;;;;;;;-6.60;76.79;99202.34;5014163;28;20049;-69
2022/01/02 08:22:10;;;;;;;5.50;1.50;;;;;;;-6.39;76.04;99226.16;4993172;28;20078;-69
2022/01/02 08:24:55;;;;;;;6.32;1.77;;;;;;;-6.13;75.12;99218.13;4996141;28;20459;-70
2022/01/02 08:27:39;;;;;;;7.13;1.80;;;;;;;-6.24;74.78;99222.94;5004102;28;20133;-69
2022/01/02 08:30:24;;;;;;;7.03;1.83;;;;;;;-6.08;74.11;99231.97;4989533;28;20075;-69
2022/01/02 08:33:10;;;;;;;7.13;1.60;;;;;;;-5.78;72.86;99239.56;4975508;28;20049;-69
2022/01/02 08:35:54;;;;;;;6.93;1.88;;;;;;;-5.46;71.13;99245.34;4997591;28;20598;-69
2022/01/02 08:38:39;;;;;;;11.88;2.70;;;;;;;-5.55;71.00;99215.00;4996136;28;20049;-69
2022/01/02 08:41:25;;;;;;;5.72;1.40;;;;;;;-5.65;70.77;99230.28;5002482;28;20100;-70
2022/01/02 08:44:09;;;;;;;8.38;1.92;;;;;;;-6.15;71.67;99191.00;4998996;28;20484;-69
2022/01/02 08:46:54;;;;;;;5.75;1.58;;;;;;;-6.22;71.60;99213.22;4987174;28;20492;-69
2022/01/02 08:49:39;;;;;;;5.55;1.38;;;;;;;-6.83;72.48;99190.03;4998339;28;20052;-69
2022/01/02 08:52:24;;;;;;;8.57;1.83;;;;;;;-6.44;73.40;99243.84;4994876;28;20061;-69
2022/01/02 08:55:09;;;;;;;6.72;1.95;;;;;;;-6.34;73.17;99245.22;4976108;28;20108;-68
2022/01/02 08:57:54;;;;;;;6.28;1.45;;;;;;;-6.30;72.18;99236.31;4995048;28;20080;-69
2022/01/02 09:00:38;;;;;;;9.40;2.05;;;;;;;-6.12;72.80;99251.41;4981912;28;20525;-69
2022/01/02 09:03:23;;;;;;;8.35;2.42;;;;;;;-6.28;73.70;99247.66;5000511;28;20321;-69
2022/01/02 09:06:08;;;;;;;5.60;1.73;;;;;;;-6.05;71.96;99243.31;4990171;28;20367;-69
2022/01/02 09:08:53;;;;;;;4.85;1.33;;;;;;;-6.06;72.48;99239.81;5011843;28;20192;-70
2022/01/02 09:11:38;;;;;;;6.15;1.77;;;;;;;-6.12;73.24;99237.41;4993096;28;20485;-69
2022/01/02 09:14:22;;;;;;;6.25;1.70;;;;;;;-6.16;73.45;99234.03;4983046;28;20076;-68
2022/01/02 09:17:06;;;;;;;6.05;1.70;;;;;;;-6.09;73.43;99227.63;4985388;28;20053;-69
2022/01/02 09:19:52;;;;;;;6.97;1.95;;;;;;;-6.23;74.01;99193.09;5013616;28;20062;-69
2022/01/02 09:22:37;;;;;;;6.95;2.08;;;;;;;-6.41;74.20;99193.78;5025543;28;20520;-70
2022/01/02 09:25:21;;;;;;;7.35;2.10;;;;;;;-6.58;75.49;99216.31;4982341;28;20136;-70
2022/01/02 09:28:06;;;;;;;12.23;2.13;;;;;;;-6.67;76.18;99208.72;4994846;28;20099;-69
2022/01/02 09:30:50;;;;;;;6.60;1.73;;;;;;;-6.53;75.52;99223.16;4974460;28;20068;-69
2022/01/02 09:33:34;;;;;;;5.20;1.58;;;;;;;-6.85;74.30;99168.19;4992793;28;20061;-70
2022/01/02 09:36:19;;;;;;;6.25;1.80;;;;;;;-6.78;73.75;99192.47;5005121;28;20100;-70
2022/01/02 09:39:04;;;;;;;6.97;1.90;;;;;;;-6.95;74.35;99168.56;4979755;28;20100;-70
2022/01/02 09:41:49;;;;;;;8.77;2.05;;;;;;;-6.87;73.81;99219.97;5011137;28;20465;-69
2022/01/02 09:44:33;;;;;;;7.30;1.83;;;;;;;-6.91;74.10;99209.59;4997748;28;20064;-71
2022/01/02 09:47:20;;;;;;;5.82;1.30;;;;;;;-6.99;72.20;99193.22;5003312;28;20107;-69
2022/01/02 09:50:06;;;;;;;6.45;1.60;;;;;;;-6.64;72.55;99205.13;4996907;28;20115;-69
2022/01/02 09:52:51;;;;;;;8.43;2.28;;;;;;;-6.82;72.54;99201.41;4998222;28;20417;-69
2022/01/02 09:55:17;;;;;;;7.05;2.13;;;;;;;-6.82;72.97;99201.41;4994449;28;20615;-70
2022/01/02 09:57:44;;;;;;;6.97;1.77;;;;;;;-6.97;73.66;99191.44;4992719;28;20030;-69
2022/01/02 10:00:11;;;;;;;5.72;1.48;;;;;;;-6.78;73.17;99197.75;4992287;28;20045;-69
2022/01/02 10:02:55;;;;;;;7.40;2.03;;;;;;;-6.96;73.92;99193.13;4985160;28;20056;-69
2022/01/02 10:05:24;;;;;;;7.65;2.15;;;;;;;-7.06;73.49;99182.97;4955000;28;20088;-70
2022/01/02 10:07:51;;;;;;;7.45;2.47;;;;;;;-6.86;72.71;99208.53;4978223;28;20045;-69
2022/01/02 10:10:17;;;;;;;6.55;1.77;;;;;;;-6.93;73.88;99196.50;4992391;28;20104;-68
2022/01/02 10:12:42;;;;;;;2.88;0.88;;;;;;;-6.91;72.70;99196.44;4971620;28;20038;-69
2022/01/02 10:15:17;;;;;;;7.63;2.15;;;;;;;-6.76;73.32;99237.97;4978596;28;20435;-69
2022/01/02 10:18:06;;;;;;;5.90;1.60;;;;;;;-6.85;72.81;99233.03;4992322;28;20068;-69
2022/01/02 10:20:44;;;;;;;7.63;2.22;;;;;;;-6.96;72.72;99214.16;4996079;28;20060;-68
2022/01/02 10:23:21;;;;;;;6.53;1.90;;;;;;;-7.15;73.30;99188.53;4988189;28;20053;-70
2022/01/02 10:26:00;;;;;;;5.85;1.52;;;;;;;-6.82;73.14;99239.03;4990575;28;20095;-71
2022/01/02 10:28:41;;;;;;;5.55;1.70;;;;;;;-7.09;72.69;99190.09;4963823;28;20049;-69
2022/01/02 10:31:15;;;;;;;5.28;1.42;;;;;;;-6.85;73.27;99222.50;4965496;28;20045;-70
2022/01/02 10:33:50;;;;;;;6.30;1.48;;;;;;;-6.77;72.64;99245.91;4992715;28;20050;-70
2022/01/02 10:36:24;;;;;;;9.60;1.88;;;;;;;-6.76;73.22;99251.13;4988235;28;20069;-69
2022/01/02 10:39:14;;;;;;;9.38;1.70;;;;;;;-7.08;72.75;99211.03;4994888;28;20069;-69
2022/01/02 10:41:50;;;;;;;6.82;1.95;;;;;;;-6.69;72.15;99243.84;4985604;28;20136;-68
2022/01/02 10:44:29;;;;;;;6.90;1.52;;;;;;;-7.33;71.62;99155.00;4992238;28;20057;-80
2022/01/02 10:47:18;;;;;;;6.63;1.70;;;;;;;-6.78;71.98;99257.31;5024747;28;20077;-67
2022/01/02 10:50:04;;;;;;;6.53;1.77;;;;;;;-6.87;72.63;99250.63;4953639;28;20061;-72
2022/01/02 10:52:35;;;;;;;7.38;1.80;;;;;;;-6.56;73.04;99274.91;5014786;28;20408;-70
2022/01/02 10:55:20;;;;;;;6.60;2.15;;;;;;;-6.62;72.67;99267.25;4999896;28;20559;-79
2022/01/02 10:57:49;;;;;;;5.93;1.50;;;;;;;-6.58;72.52;99268.88;4998789;28;20050;-72
2022/01/02 11:00:16;;;;;;;7.40;1.70;;;;;;;-6.67;72.12;99263.91;4999550;28;20100;-74
2022/01/02 11:02:44;;;;;;;6.03;1.73;;;;;;;-6.70;72.68;99274.53;5019752;28;20053;-69
2022/01/02 11:05:13;;;;;;;5.47;1.45;;;;;;;-6.86;72.93;99254.97;4995747;28;20041;-77
2022/01/02 11:07:41;;;;;;;7.05;1.55;;;;;;;-6.70;72.16;99273.69;4981780;28;20124;-71
2022/01/02 11:10:10;;;;;;;8.50;2.20;;;;;;;-6.95;72.88;99269.25;5004702;28;20041;-71
2022/01/02 11:12:40;;;;;;;7.05;1.77;;;;;;;-6.70;73.80;99292.94;5006256;28;20046;-69
2022/01/02 11:15:08;;;;;;;6.75;2.00;;;;;;;-6.91;74.79;99262.13;5012923;28;20136;-77
2022/01/02 11:17:35;;;;;;;7.30;2.00;;;;;;;-6.99;73.54;99274.66;5010560;28;20048;-74
2022/01/02 11:20:14;;;;;;;5.70;1.42;;;;;;;-7.15;73.16;99256.81;5024646;28;20054;-74
2022/01/02 11:22:57;;;;;;;7.50;2.38;;;;;;;-7.16;73.97;99276.09;4957182;28;20490;-74
2022/01/02 11:25:29;;;;;;;9.65;2.10;;;;;;;-7.25;74.64;99260.63;4988324;28;20176;-68
2022/01/02 11:28:02;;;;;;;7.65;2.28;;;;;;;-7.09;74.35;99261.84;4997829;28;20116;-69
2022/01/02 11:30:34;;;;;;;7.18;1.88;;;;;;;-6.99;74.36;99282.56;4974918;28;20056;-71
2022/01/02 11:33:03;;;;;;;6.47;1.83;;;;;;;-7.08;74.14;99274.06;4994382;28;20100;-69
2022/01/02 11:35:31;;;;;;;5.65;1.85;;;;;;;-7.21;74.10;99251.75;4978971;28;20410;-70
2022/01/02 11:38:02;;;;;;;7.75;2.35;;;;;;;-7.29;74.77;99238.00;4978740;28;20037;-71
2022/01/02 11:40:50;;;;;;;7.53;1.95;;;;;;;-7.25;74.67;99260.63;4985645;28;20141;-70
2022/01/02 11:43:38;;;;;;;6.35;1.67;;;;;;;-7.08;74.47;99262.72;4979085;28;20053;-69
2022/01/02 11:46:30;;;;;;;8.95;2.35;;;;;;;-7.17;73.83;99266.47;4977733;28;20073;-69
2022/01/02 11:49:04;;;;;;;4.93;1.50;;;;;;;-7.24;73.31;99267.59;4994740;28;20042;-69
2022/01/02 11:52:01;;;;;;;7.13;2.13;;;;;;;-7.22;73.10;99265.78;4976924;28;20429;-70
2022/01/02 11:54:35;;;;;;;8.73;1.60;;;;;;;-7.23;73.96;99274.59;4958951;28;20054;-69
2022/01/02 11:57:26;;;;;;;7.13;1.95;;;;;;;-7.14;75.03;99283.91;5008660;28;20556;-69
2022/01/02 11:59:53;;;;;;;6.07;1.98;;;;;;;-7.10;74.81;99286.38;4987832;28;20180;-69
2022/01/02 12:02:19;;;;;;;6.03;1.80;;;;;;;-7.07;75.75;99294.16;5001980;28;20042;-69
2022/01/02 12:07:36;;;;;;;6.78;1.60;;;;;;;-7.06;72.08;99292.41;4988879;28;20049;-69
2022/01/02 12:10:16;;;;;;;7.53;2.13;;;;;;;-7.12;72.79;99298.72;4967611;28;20095;-70
2022/01/02 12:13:06;;;;;;;5.80;1.80;;;;;;;-7.23;73.78;99285.09;4980483;28;20095;-67
2022/01/02 12:15:31;;;;;;;7.38;2.17;;;;;;;-7.26;74.19;99303.56;5019752;28;20429;-71
2022/01/02 12:18:07;;;;;;;5.57;1.45;;;;;;;-7.07;73.53;99307.31;4982096;28;20046;-70
2022/01/02 12:20:53;;;;;;;7.15;1.98;;;;;;;-7.23;73.00;99274.59;4997966;28;20063;-70
2022/01/02 12:23:34;;;;;;;8.57;2.63;;;;;;;-7.27;73.55;99301.84;4998372;28;20103;-70
2022/01/02 12:26:10;;;;;;;7.80;1.70;;;;;;;-7.19;73.01;99309.47;4980569;28;20058;-69
2022/01/02 12:29:01;;;;;;;6.65;2.10;;;;;;;-7.19;74.01;99304.22;5014194;28;20053;-69
2022/01/02 12:31:30;;;;;;;7.75;2.22;;;;;;;-7.31;73.49;99292.34;4999907;28;20033;-70
2022/01/02 12:34:17;;;;;;;8.48;2.08;;;;;;;-7.18;74.51;99313.81;5032713;28;20503;-70
2022/01/02 12:36:45;;;;;;;7.38;1.98;;;;;;;-7.33;74.18;99281.03;4998797;28;20100;-69
2022/01/02 12:39:16;;;;;;;8.32;2.35;;;;;;;-7.28;73.75;99314.13;5014149;28;20064;-70
2022/01/02 12:41:44;;;;;;;8.60;2.22;;;;;;;-7.36;73.84;99304.75;5013883;28;20073;-69
2022/01/02 12:44:15;;;;;;;7.05;1.55;;;;;;;-7.40;73.93;99303.13;4997428;28;20049;-69
2022/01/02 12:46:50;;;;;;;7.25;2.00;;;;;;;-7.35;74.79;99327.47;4997836;28;20038;-69
2022/01/02 12:49:30;;;;;;;7.40;1.90;;;;;;;-7.34;73.97;99329.22;5014062;28;20432;-69
2022/01/02 12:52:02;;;;;;;7.13;1.80;;;;;;;-7.36;74.73;99313.47;5014259;28;20045;-70
2022/01/02 12:54:33;;;;;;;5.65;1.58;;;;;;;-7.57;75.29;99280.91;4997611;28;20049;-69
2022/01/02 12:56:59;;;;;;;;;;;;;;;-7.35;75.46;99316.97;4997537;28;20049;-71
2022/01/02 12:59:27;;;;;;;6.93;2.20;;;;;;;-7.36;74.86;99331.84;4981283;28;19974;-70